createdAt,value
2022-12-14T00:01:35.304Z,-5.40
2022-12-14T00:04:02.415Z,-5.50
2022-12-14T00:06:32.342Z,-5.40
2022-12-14T00:09:10.310Z,-5.40
2022-12-14T00:11:37.301Z,-5.50
2022-12-14T00:14:19.293Z,-5.50
2022-12-14T00:16:52.974Z,-5.50
2022-12-14T00:19:26.286Z,-5.50
2022-12-14T00:21:53.346Z,-5.50
2022-12-14T00:24:20.423Z,-5.50
2022-12-14T00:26:54.296Z,-5.50
2022-12-14T00:29:21.277Z,-5.50
2022-12-14T00:31:49.781Z,-5.50
2022-12-14T00:34:23.322Z,-5.50
2022-12-14T00:36:50.328Z,-5.50
2022-12-14T00:39:17.489Z,-5.50
2022-12-14T00:41:51.354Z,-5.50
2022-12-14T00:44:18.336Z,-5.50
2022-12-14T00:46:45.328Z,-5.50
2022-12-14T00:49:20.330Z,-5.40
2022-12-14T00:51:47.271Z,-5.40
2022-12-14T00:54:14.437Z,-5.40
2022-12-14T00:56:48.343Z,-5.40
2022-12-14T00:59:22.867Z,-5.40
2022-12-14T01:01:59.442Z,-5.40
2022-12-14T01:04:27.316Z,-5.40
2022-12-14T01:06:54.963Z,-5.40
2022-12-14T01:09:31.324Z,-5.40
2022-12-14T01:11:58.605Z,-5.40
2022-12-14T01:14:39.312Z,-5.30
2022-12-14T01:17:12.986Z,-5.30
2022-12-14T01:19:46.325Z,-5.30
2022-12-14T01:22:16.344Z,-5.30
2022-12-14T01:24:44.953Z,-5.30
2022-12-14T01:27:18.350Z,-5.20
2022-12-14T01:29:45.404Z,-5.20
2022-12-14T01:32:12.434Z,-5.20
2022-12-14T01:34:46.366Z,-5.10
2022-12-14T01:37:13.390Z,-5.10
2022-12-14T01:39:40.397Z,-5.00
2022-12-14T01:42:22.385Z,-5.00
2022-12-14T01:44:56.659Z,-5.00
2022-12-14T01:47:45.837Z,-4.90
2022-12-14T01:50:31.308Z,-4.90
2022-12-14T01:53:26.746Z,-4.90
2022-12-14T01:55:56.626Z,-4.90
2022-12-14T01:58:33.314Z,-4.90
2022-12-14T02:01:02.532Z,-4.90
2022-12-14T02:03:49.356Z,-4.80
2022-12-14T02:06:29.782Z,-4.80
2022-12-14T02:09:04.376Z,-4.80
2022-12-14T02:12:04.740Z,-4.70
2022-12-14T02:14:45.380Z,-4.70
2022-12-14T02:17:20.803Z,-4.70
2022-12-14T02:19:56.312Z,-4.70
2022-12-14T02:22:38.090Z,-4.70
2022-12-14T02:25:49.768Z,-4.70
2022-12-14T02:28:31.809Z,-4.60
2022-12-14T02:32:12.362Z,-4.60
2022-12-14T02:34:58.827Z,-4.60
2022-12-14T02:38:09.337Z,-4.60
2022-12-14T02:41:00.883Z,-4.60
2022-12-14T02:44:10.325Z,-4.60
2022-12-14T02:46:50.531Z,-4.60
2022-12-14T02:49:59.364Z,-4.60
2022-12-14T02:52:37.465Z,-4.60
2022-12-14T02:55:20.347Z,-4.60
2022-12-14T02:58:50.762Z,-4.60
2022-12-14T03:01:31.471Z,-4.60
2022-12-14T03:03:58.668Z,-4.60
2022-12-14T03:06:26.576Z,-4.60
2022-12-14T03:09:09.423Z,-4.70
2022-12-14T03:11:59.765Z,-4.70
2022-12-14T03:14:52.304Z,-4.60
2022-12-14T03:17:30.673Z,-4.60
2022-12-14T03:20:22.347Z,-4.60
2022-12-14T03:23:12.267Z,-4.50
2022-12-14T03:26:05.361Z,-4.50
2022-12-14T03:29:02.905Z,-4.40
2022-12-14T03:31:54.453Z,-4.40
2022-12-14T03:34:31.920Z,-4.40
2022-12-14T03:37:27.326Z,-4.30
2022-12-14T03:39:54.512Z,-4.30
2022-12-14T03:42:39.334Z,-4.30
2022-12-14T03:45:06.840Z,-4.30
2022-12-14T03:48:18.347Z,-4.30
2022-12-14T03:51:06.995Z,-4.20
2022-12-14T03:54:07.338Z,-4.20
2022-12-14T03:57:21.222Z,-4.20
2022-12-14T04:00:10.341Z,-4.20
2022-12-14T04:02:56.265Z,-4.20
2022-12-14T04:05:58.323Z,-4.20
2022-12-14T04:08:41.966Z,-4.30
2022-12-14T04:11:40.329Z,-4.30
2022-12-14T04:14:45.883Z,-4.30
2022-12-14T04:17:52.342Z,-4.30
2022-12-14T04:20:53.884Z,-4.30
2022-12-14T04:23:58.377Z,-4.20
2022-12-14T04:26:33.011Z,-4.30
2022-12-14T04:29:34.358Z,-4.30
2022-12-14T04:32:21.444Z,-4.30
2022-12-14T04:35:03.559Z,-4.30
2022-12-14T04:37:34.220Z,-4.30
2022-12-14T04:40:41.328Z,-4.30
2022-12-14T04:43:17.283Z,-4.20
2022-12-14T04:46:13.649Z,-4.20
2022-12-14T04:49:04.485Z,-4.20
2022-12-14T04:52:08.387Z,-4.10
2022-12-14T04:54:52.486Z,-4.10
2022-12-14T04:58:06.409Z,-4.00
2022-12-14T05:00:40.986Z,-4.00
2022-12-14T05:03:34.320Z,-4.00
2022-12-14T05:06:51.356Z,-3.90
2022-12-14T05:09:39.325Z,-3.90
2022-12-14T05:12:20.621Z,-3.90
2022-12-14T05:15:32.378Z,-3.90
2022-12-14T05:18:07.514Z,-3.90
2022-12-14T05:20:41.325Z,-3.80
2022-12-14T05:23:08.455Z,-3.80
2022-12-14T05:25:35.569Z,-3.80
2022-12-14T05:28:09.353Z,-3.80
2022-12-14T05:30:37.216Z,-3.70
2022-12-14T05:33:04.657Z,-3.70
2022-12-14T05:35:38.363Z,-3.70
2022-12-14T05:38:05.325Z,-3.70
2022-12-14T05:40:32.225Z,-3.60
2022-12-14T05:43:13.330Z,-3.60
2022-12-14T05:45:40.608Z,-3.50
2022-12-14T05:48:07.892Z,-3.50
2022-12-14T05:50:41.415Z,-3.50
2022-12-14T05:53:08.800Z,-3.50
2022-12-14T05:55:35.981Z,-3.40
2022-12-14T05:58:09.383Z,-3.40
2022-12-14T06:00:36.386Z,-3.40
2022-12-14T06:03:03.561Z,-3.40
2022-12-14T06:05:37.393Z,-3.40
2022-12-14T06:08:04.579Z,-3.40
2022-12-14T06:10:31.591Z,-3.40
2022-12-14T06:13:05.669Z,-3.40
2022-12-14T06:15:39.498Z,-3.30
2022-12-14T06:18:13.383Z,-3.30
2022-12-14T06:20:40.462Z,-3.30
2022-12-14T06:23:07.457Z,-3.30
2022-12-14T06:25:42.525Z,-3.30
2022-12-14T06:28:09.507Z,-3.30
2022-12-14T06:30:36.580Z,-3.20
2022-12-14T06:33:10.422Z,-3.20
2022-12-14T06:35:37.563Z,-3.20
2022-12-14T06:38:04.588Z,-3.10
2022-12-14T06:40:38.385Z,-3.10
2022-12-14T06:43:05.522Z,-3.00
2022-12-14T06:45:33.088Z,-3.00
2022-12-14T06:48:06.487Z,-3.00
2022-12-14T06:50:34.156Z,-3.00
2022-12-14T06:53:01.840Z,-3.00
2022-12-14T06:55:36.463Z,-3.00
2022-12-14T06:58:03.535Z,-3.00
2022-12-14T07:00:31.073Z,-3.00
2022-12-14T07:03:04.543Z,-3.00
2022-12-14T07:05:31.950Z,-3.00
2022-12-14T07:07:59.287Z,-3.00
2022-12-14T07:10:33.424Z,-3.00
2022-12-14T07:13:00.702Z,-2.90
2022-12-14T07:15:41.466Z,-2.90
2022-12-14T07:18:08.702Z,-2.90
2022-12-14T07:20:35.850Z,-2.80
2022-12-14T07:23:09.456Z,-2.80
2022-12-14T07:25:36.710Z,-2.80
2022-12-14T07:28:04.009Z,-2.80
2022-12-14T07:30:37.459Z,-2.80
2022-12-14T07:33:04.730Z,-2.80
2022-12-14T07:35:32.107Z,-2.80
2022-12-14T07:38:05.481Z,-2.80
2022-12-14T07:40:36.031Z,-2.70
2022-12-14T07:43:03.676Z,-2.70
2022-12-14T07:45:37.478Z,-2.70
2022-12-14T07:48:07.696Z,-2.60
2022-12-14T07:50:35.594Z,-2.70
2022-12-14T07:53:09.441Z,-2.60
2022-12-14T07:55:36.776Z,-2.60
2022-12-14T07:58:04.020Z,-2.50
2022-12-14T08:00:37.415Z,-2.40
2022-12-14T08:03:04.761Z,-2.50
2022-12-14T08:05:32.104Z,-2.50
2022-12-14T08:08:05.519Z,-2.40
2022-12-14T08:10:38.624Z,-2.30
2022-12-14T08:13:14.480Z,-2.20
2022-12-14T08:15:48.537Z,-2.00
2022-12-14T08:18:22.474Z,-1.90
2022-12-14T08:20:53.555Z,-1.70
2022-12-14T08:23:21.529Z,-1.50
2022-12-14T08:26:03.589Z,-1.50
2022-12-14T08:28:32.726Z,-1.50
2022-12-14T08:31:16.671Z,-1.40
2022-12-14T08:33:46.035Z,-1.40
2022-12-14T08:36:29.448Z,-1.40
2022-12-14T08:39:00.179Z,-1.40
2022-12-14T08:41:36.600Z,-1.30
2022-12-14T08:44:05.164Z,-1.10
2022-12-14T08:46:35.483Z,-0.90
2022-12-14T08:49:09.422Z,-0.80
2022-12-14T08:51:40.227Z,-0.70
2022-12-14T08:54:07.572Z,-0.60
2022-12-14T08:56:41.498Z,-0.50
2022-12-14T08:59:08.816Z,-0.50
2022-12-14T09:01:36.303Z,-0.60
2022-12-14T09:04:14.499Z,-0.60
2022-12-14T09:06:41.730Z,-0.60
2022-12-14T09:09:15.745Z,-0.60
2022-12-14T09:11:51.448Z,-0.70
2022-12-14T09:14:25.387Z,-0.70
2022-12-14T09:16:59.748Z,-0.80
2022-12-14T09:19:28.107Z,-0.70
2022-12-14T09:21:55.923Z,-0.80
2022-12-14T09:24:31.555Z,-0.80
2022-12-14T09:27:02.727Z,-0.70
2022-12-14T09:29:30.696Z,-0.70
2022-12-14T09:32:04.661Z,-0.70
2022-12-14T09:34:32.136Z,-0.60
2022-12-14T09:37:11.503Z,-0.50
2022-12-14T09:39:38.742Z,-0.60
2022-12-14T09:42:44.526Z,-0.60
2022-12-14T09:45:40.302Z,-0.50
2022-12-14T09:48:29.877Z,-0.40
2022-12-14T09:50:57.747Z,-0.20
2022-12-14T09:53:26.459Z,-0.10
2022-12-14T09:56:04.619Z,0.00
2022-12-14T09:58:34.073Z,0.00
2022-12-14T10:01:28.564Z,0.10
2022-12-14T10:04:15.703Z,0.10
2022-12-14T10:07:11.523Z,0.10
2022-12-14T10:10:22.188Z,0.10
2022-12-14T10:13:34.488Z,0.10
2022-12-14T10:16:26.664Z,0.10
2022-12-14T10:19:22.486Z,0.10
2022-12-14T10:21:59.332Z,0.20
2022-12-14T10:24:45.565Z,0.20
2022-12-14T10:27:24.386Z,0.20
2022-12-14T10:30:15.466Z,0.20
2022-12-14T10:32:53.740Z,0.20
2022-12-14T10:35:47.460Z,0.20
2022-12-14T10:38:23.957Z,0.20
2022-12-14T10:41:42.766Z,0.30
2022-12-14T10:48:05.588Z,0.50
2022-12-14T10:51:07.443Z,0.60
2022-12-14T10:54:35.802Z,0.80
2022-12-14T10:57:03.690Z,0.80
2022-12-14T11:00:03.024Z,0.70
2022-12-14T11:02:39.651Z,0.60
2022-12-14T11:05:49.542Z,0.40
2022-12-14T11:08:48.802Z,0.30
2022-12-14T11:11:24.799Z,0.40
2022-12-14T11:14:28.584Z,0.50
2022-12-14T11:17:10.621Z,0.60
2022-12-14T11:19:38.248Z,0.70
2022-12-14T11:22:22.642Z,0.80
2022-12-14T11:24:51.510Z,0.70
2022-12-14T11:27:28.785Z,0.70
2022-12-14T11:29:56.853Z,0.80
2022-12-14T11:32:27.528Z,0.80
2022-12-14T11:35:16.589Z,0.90
2022-12-14T11:37:49.355Z,1.00
2022-12-14T11:40:32.873Z,1.10
2022-12-14T11:43:16.623Z,1.20
2022-12-14T11:45:58.594Z,1.30
2022-12-14T11:48:29.178Z,1.50
2022-12-14T11:51:22.871Z,1.50
2022-12-14T11:54:03.027Z,1.50
2022-12-14T11:56:37.533Z,1.60
2022-12-14T11:59:05.254Z,1.50
2022-12-14T12:01:33.856Z,1.50
2022-12-14T12:04:09.710Z,1.40
2022-12-14T12:06:37.244Z,1.50
2022-12-14T12:09:38.559Z,1.40
2022-12-14T12:12:15.341Z,1.40
2022-12-14T12:14:58.465Z,1.40
2022-12-14T12:17:59.727Z,1.20
2022-12-14T12:20:57.479Z,1.00
2022-12-14T12:24:01.710Z,0.90
2022-12-14T12:26:41.600Z,0.80
2022-12-14T12:29:25.025Z,0.80
2022-12-14T12:32:07.513Z,0.70
2022-12-14T12:35:36.443Z,0.60
2022-12-14T12:38:28.900Z,0.50
2022-12-14T12:41:21.472Z,0.40
2022-12-14T12:44:20.460Z,0.40
2022-12-14T12:47:47.155Z,0.20
2022-12-14T12:50:31.571Z,0.10
2022-12-14T12:53:06.903Z,0.00
2022-12-14T12:55:59.471Z,-0.10
2022-12-14T12:58:32.621Z,-0.10
2022-12-14T13:01:27.564Z,-0.10
2022-12-14T13:04:03.868Z,-0.10
2022-12-14T13:06:51.541Z,-0.10
2022-12-14T13:09:30.094Z,-0.10
2022-12-14T13:12:05.520Z,-0.10
2022-12-14T13:14:59.872Z,-0.10
2022-12-14T13:18:06.581Z,0.00
2022-12-14T13:20:34.977Z,0.00
2022-12-14T13:23:28.311Z,0.00
2022-12-14T13:26:58.696Z,0.10
2022-12-14T13:30:00.465Z,0.20
2022-12-14T13:32:58.517Z,0.30
2022-12-14T13:35:41.299Z,0.50
2022-12-14T13:39:12.693Z,0.40
2022-12-14T13:42:20.288Z,0.60
2022-12-14T13:45:08.575Z,0.50
2022-12-14T13:47:45.809Z,0.30
2022-12-14T13:50:52.956Z,0.20
2022-12-14T13:53:35.248Z,0.10
2022-12-14T13:56:11.482Z,0.20
2022-12-14T13:58:46.616Z,0.30
2022-12-14T14:01:43.498Z,0.30
2022-12-14T14:04:16.570Z,0.40
2022-12-14T14:07:00.491Z,0.50
2022-12-14T14:09:33.472Z,0.50
2022-12-14T14:12:28.480Z,0.60
2022-12-14T14:15:26.107Z,0.60
2022-12-14T14:18:01.677Z,0.50
2022-12-14T14:20:58.628Z,0.30
2022-12-14T14:23:39.447Z,0.30
2022-12-14T14:26:24.954Z,0.10
2022-12-14T14:29:28.447Z,0.00
2022-12-14T14:32:01.281Z,-0.20
2022-12-14T14:34:56.488Z,-0.20
2022-12-14T14:37:33.462Z,-0.30
2022-12-14T14:40:29.186Z,-0.30
2022-12-14T14:43:25.242Z,-0.40
2022-12-14T14:46:04.524Z,-0.40
2022-12-14T14:48:57.010Z,-0.50
2022-12-14T14:51:39.463Z,-0.50
2022-12-14T14:54:56.574Z,-0.60
2022-12-14T14:58:03.511Z,-0.70
2022-12-14T15:00:39.941Z,-1.00
2022-12-14T15:03:20.600Z,-1.20
2022-12-14T15:05:49.676Z,-1.20
2022-12-14T15:08:46.712Z,-1.30
2022-12-14T15:11:21.811Z,-1.40
2022-12-14T15:14:48.515Z,-1.60
2022-12-14T15:17:25.153Z,-1.70
2022-12-14T15:20:02.511Z,-1.80
2022-12-14T15:22:43.568Z,-1.80
2022-12-14T15:25:27.458Z,-1.90
2022-12-14T15:27:57.930Z,-1.90
2022-12-14T15:30:35.511Z,-1.90
2022-12-14T15:33:15.805Z,-2.00
2022-12-14T15:35:49.691Z,-2.00
2022-12-14T15:38:27.836Z,-2.00
2022-12-14T15:41:07.460Z,-2.00
2022-12-14T15:43:34.406Z,-2.00
2022-12-14T15:46:03.413Z,-2.10
2022-12-14T15:48:41.534Z,-2.10
2022-12-14T15:51:17.446Z,-2.10
2022-12-14T15:53:54.421Z,-2.10
2022-12-14T15:56:35.013Z,-2.10
2022-12-14T15:59:31.505Z,-2.10
2022-12-14T16:02:30.857Z,-2.10
2022-12-14T16:05:09.480Z,-2.20
2022-12-14T16:07:45.136Z,-2.20
2022-12-14T16:10:39.688Z,-2.20
2022-12-14T16:13:19.059Z,-2.20
2022-12-14T16:16:00.440Z,-2.20
2022-12-14T16:18:27.482Z,-2.20
2022-12-14T16:21:08.466Z,-2.20
2022-12-14T16:23:41.972Z,-2.20
2022-12-14T16:26:21.465Z,-2.20
2022-12-14T16:28:49.871Z,-2.20
2022-12-14T16:31:30.525Z,-2.30
2022-12-14T16:34:18.013Z,-2.30
2022-12-14T16:37:30.396Z,-2.30
2022-12-14T16:39:47.716Z,-2.40
2022-12-14T16:42:34.478Z,-2.40
2022-12-14T16:45:01.469Z,-2.40
2022-12-14T16:48:08.433Z,-2.40
2022-12-14T16:53:34.940Z,-2.50
2022-12-14T16:56:21.141Z,-2.50
2022-12-14T16:59:06.480Z,-2.40
2022-12-14T17:01:48.366Z,-2.50
2022-12-14T17:04:26.457Z,-2.40
2022-12-14T17:06:56.427Z,-2.40
2022-12-14T17:09:36.471Z,-2.40
2022-12-14T17:12:15.132Z,-2.40
2022-12-14T17:14:50.219Z,-2.40
2022-12-14T17:17:36.301Z,-2.40
2022-12-14T17:20:14.281Z,-2.40
2022-12-14T17:22:43.153Z,-2.40
2022-12-14T17:25:23.417Z,-2.40
2022-12-14T17:27:50.621Z,-2.40
2022-12-14T17:30:21.786Z,-2.40
2022-12-14T17:32:57.470Z,-2.40
2022-12-14T17:35:30.192Z,-2.40
2022-12-14T17:38:04.470Z,-2.40
2022-12-14T17:40:31.519Z,-2.50
2022-12-14T17:42:58.967Z,-2.50
2022-12-14T17:45:35.479Z,-2.50
2022-12-14T17:48:02.478Z,-2.50
2022-12-14T17:50:31.065Z,-2.50
2022-12-14T17:53:05.445Z,-2.50
2022-12-14T17:55:33.137Z,-2.50
2022-12-14T17:58:14.450Z,-2.50
2022-12-14T18:01:00.156Z,-2.50
2022-12-14T18:03:37.504Z,-2.50
2022-12-14T18:06:05.774Z,-2.50
2022-12-14T18:08:32.754Z,-2.50
2022-12-14T18:11:14.139Z,-2.50
2022-12-14T18:13:42.440Z,-2.50
2022-12-14T18:16:34.552Z,-2.60
2022-12-14T18:19:08.162Z,-2.60
2022-12-14T18:21:41.463Z,-2.60
2022-12-14T18:24:15.298Z,-2.50
2022-12-14T18:26:49.415Z,-2.50
2022-12-14T18:29:16.834Z,-2.50
2022-12-14T18:31:44.320Z,-2.50
2022-12-14T18:34:23.487Z,-2.50
2022-12-14T18:36:54.708Z,-2.50
2022-12-14T18:39:30.500Z,-2.50
2022-12-14T18:41:57.591Z,-2.50
2022-12-14T18:44:24.883Z,-2.60
2022-12-14T18:47:09.877Z,-2.60
2022-12-14T18:49:45.426Z,-2.60
2022-12-14T18:52:19.478Z,-2.60
2022-12-14T18:54:46.621Z,-2.70
2022-12-14T18:57:27.490Z,-2.70
2022-12-14T19:20:07.669Z,-2.90
2022-12-14T19:44:23.644Z,-3.00
2022-12-14T19:46:52.499Z,-3.10
2022-12-14T19:49:22.333Z,-3.10
2022-12-14T19:51:56.576Z,-3.10
2022-12-14T19:54:25.323Z,-3.10
2022-12-14T19:56:55.165Z,-3.10
2022-12-14T19:59:29.489Z,-3.10
2022-12-14T20:01:56.783Z,-3.10
2022-12-14T20:04:27.072Z,-3.10
2022-12-14T20:07:01.571Z,-3.10
2022-12-14T20:09:29.222Z,-3.10
2022-12-14T20:11:58.069Z,-3.20
2022-12-14T20:14:35.099Z,-3.20
2022-12-14T20:17:02.238Z,-3.20
2022-12-14T20:19:30.804Z,-3.10
2022-12-14T20:22:04.509Z,-3.10
2022-12-14T20:24:32.094Z,-3.10
2022-12-14T20:27:02.053Z,-3.10
2022-12-14T20:29:36.516Z,-3.10
2022-12-14T20:32:03.929Z,-3.10
2022-12-14T20:34:31.370Z,-3.10
2022-12-14T20:37:05.596Z,-3.10
2022-12-14T20:39:32.873Z,-3.10
2022-12-14T20:42:03.378Z,-3.10
2022-12-14T20:44:40.469Z,-3.10
2022-12-14T20:47:14.468Z,-3.10
2022-12-14T20:49:48.519Z,-3.10
2022-12-14T20:52:15.778Z,-3.10
2022-12-14T20:54:43.283Z,-3.10
2022-12-14T20:57:16.508Z,-3.10
2022-12-14T20:59:43.815Z,-3.10
2022-12-14T21:02:23.626Z,-3.20
2022-12-14T21:04:51.153Z,-3.20
2022-12-14T21:07:22.923Z,-3.20
2022-12-14T21:09:59.543Z,-3.20
2022-12-14T21:12:26.763Z,-3.20
2022-12-14T21:14:56.313Z,-3.30
2022-12-14T21:17:35.472Z,-3.30
2022-12-14T21:20:03.410Z,-3.30
2022-12-14T21:22:30.799Z,-3.30
2022-12-14T21:25:06.593Z,-3.30
2022-12-14T21:27:38.669Z,-3.30
2022-12-14T21:30:18.478Z,-3.20
2022-12-14T21:32:45.518Z,-3.20
2022-12-14T21:35:17.503Z,-3.20
2022-12-14T21:37:51.497Z,-3.20
2022-12-14T21:40:38.536Z,-3.20
2022-12-14T21:43:12.484Z,-3.20
2022-12-14T21:45:46.258Z,-3.20
2022-12-14T21:48:19.477Z,-3.20
2022-12-14T21:50:46.370Z,-3.20
2022-12-14T21:53:13.352Z,-3.10
2022-12-14T21:55:58.455Z,-3.10
2022-12-14T21:58:25.531Z,-3.10
2022-12-14T22:00:52.613Z,-3.10
2022-12-14T22:03:26.540Z,-3.00
2022-12-14T22:05:53.550Z,-3.00
2022-12-14T22:08:20.907Z,-3.00
2022-12-14T22:10:54.548Z,-3.00
2022-12-14T22:13:22.084Z,-3.00
2022-12-14T22:15:49.513Z,-3.00
2022-12-14T22:18:23.506Z,-3.00
2022-12-14T22:20:50.657Z,-3.00
2022-12-14T22:23:17.960Z,-3.00
2022-12-14T22:25:57.565Z,-3.00
2022-12-14T22:28:24.782Z,-3.10
2022-12-14T22:30:51.967Z,-3.00
2022-12-14T22:33:25.516Z,-3.00
2022-12-14T22:35:55.442Z,-3.10
2022-12-14T22:38:22.656Z,-3.10
2022-12-14T22:40:57.560Z,-3.10
2022-12-14T22:43:29.728Z,-3.10
2022-12-14T22:46:12.610Z,-3.20
2022-12-14T22:48:41.198Z,-3.20
2022-12-14T22:51:19.602Z,-3.20
2022-12-14T22:53:49.545Z,-3.20
2022-12-14T22:56:45.531Z,-3.30
2022-12-14T22:59:22.731Z,-3.30
2022-12-14T23:01:56.599Z,-3.30
2022-12-14T23:04:23.918Z,-3.40
2022-12-14T23:06:51.114Z,-3.40
2022-12-14T23:09:43.486Z,-3.40
2022-12-14T23:12:29.048Z,-3.40
2022-12-14T23:15:22.678Z,-3.40
2022-12-14T23:18:08.178Z,-3.40
2022-12-14T23:21:03.544Z,-3.40
2022-12-14T23:23:49.577Z,-3.30
2022-12-14T23:26:41.542Z,-3.30
2022-12-14T23:29:27.060Z,-3.30
2022-12-14T23:32:20.515Z,-3.30
2022-12-14T23:35:05.884Z,-3.30
2022-12-14T23:38:04.495Z,-3.40
2022-12-14T23:40:50.437Z,-3.40
2022-12-14T23:43:43.570Z,-3.40
2022-12-14T23:46:37.210Z,-3.40
2022-12-14T23:49:29.579Z,-3.40
2022-12-14T23:52:14.804Z,-3.40
2022-12-14T23:55:20.570Z,-3.40
2022-12-14T23:58:06.166Z,-3.30
